Time;durP1;ratioP1;P1;durP2;ratioP2;P2;SDS_P1;SDS_P2;PMS_P1;PMS_P2;Temp;Humidity;BMP_temperature;BMP_pressure;BME280_temperature;BME280_humidity;BME280_pressure;Samples;Min_cycle;Max_cycle;Signal;HPM_P1;HPM_P2
2023/03/20 00:01:59;;;;;;;;;;;;;;;5.05;100.00;100243.09;5092681;28;847;-67
2023/03/20 00:04:25;;;;;;;;;;;;;;;4.82;100.00;100245.66;5092947;28;939;-66
2023/03/20 00:06:52;;;;;;;;;;;;;;;4.69;100.00;100234.81;5092634;28;864;-68
2023/03/20 00:09:19;;;;;;;;;;;;;;;4.55;100.00;100237.16;5092507;28;1277;-66
2023/03/20 00:11:49;;;;;;;;;;;;;;;4.48;100.00;100236.97;5092583;28;823;-66
2023/03/20 00:14:17;;;;;;;;;;;;;;;4.44;100.00;100245.09;5092369;28;1914;-66
2023/03/20 00:16:45;;;;;;;;;;;;;;;4.45;100.00;100243.16;5092468;28;1129;-66
2023/03/20 00:19:18;;;;;;;;;;;;;;;4.43;100.00;100250.91;5092743;28;1077;-66
2023/03/20 00:21:45;;;;;;;;;;;;;;;4.45;100.00;100246.66;5092402;28;851;-66
2023/03/20 00:24:12;;;;;;;;;;;;;;;4.48;100.00;100247.91;5092188;28;954;-67
2023/03/20 00:26:39;;;;;;;;;;;;;;;4.48;100.00;100239.69;5092400;28;855;-68
2023/03/20 00:29:06;;;;;;;;;;;;;;;4.47;100.00;100236.16;5091811;28;835;-68
2023/03/20 00:31:36;;;;;;;;;;;;;;;4.50;100.00;100240.13;5092159;28;827;-68
2023/03/20 00:34:05;;;;;;;;;;;;;;;4.56;100.00;100246.97;5092185;28;812;-66
2023/03/20 00:36:32;;;;;;;;;;;;;;;4.59;100.00;100245.47;5092009;28;1905;-68
2023/03/20 00:38:58;;;;;;;;;;;;;;;4.56;100.00;100248.91;5092096;28;890;-66
2023/03/20 00:41:27;;;;;;;;;;;;;;;4.49;100.00;100238.56;5092010;28;827;-66
2023/03/20 00:43:57;;;;;;;;;;;;;;;4.51;100.00;100241.75;5092030;28;804;-66
2023/03/20 00:46:25;;;;;;;;;;;;;;;4.50;100.00;100240.13;5092202;28;863;-66
2023/03/20 00:48:51;;;;;;;;;;;;;;;4.54;100.00;100232.03;5091947;28;910;-67
2023/03/20 00:51:18;;;;;;;;;;;;;;;4.59;100.00;100229.84;5091794;28;847;-67
2023/03/20 00:53:45;;;;;;;;;;;;;;;4.58;100.00;100233.72;5091780;28;906;-68
2023/03/20 00:56:30;;;;;;;;;;;;;;;4.57;100.00;100232.13;5091693;28;1893;-66
2023/03/20 00:58:58;;;;;;;;;;;;;;;4.57;100.00;100232.13;5077361;28;1210;-66
2023/03/20 01:01:24;;;;;;;;;;;;;;;4.57;100.00;100232.13;5091784;28;891;-66
2023/03/20 01:03:51;;;;;;;;;;;;;;;4.58;100.00;100227.44;5091687;28;914;-67
2023/03/20 01:06:18;;;;;;;;;;;;;;;4.63;100.00;100217.03;5091732;28;835;-68
2023/03/20 01:08:45;;;;;;;;;;;;;;;4.66;100.00;100212.81;5091821;28;914;-69
2023/03/20 01:11:12;;;;;;;;;;;;;;;4.68;100.00;100214.03;5091488;28;1449;-69
2023/03/20 01:13:40;;;;;;;;;;;;;;;4.66;100.00;100212.81;5091604;28;851;-69
2023/03/20 01:16:15;;;;;;;;;;;;;;;4.64;100.00;100206.88;5091500;28;1909;-67
2023/03/20 01:18:42;;;;;;;;;;;;;;;4.72;100.00;100213.34;5091522;28;879;-66
2023/03/20 01:21:08;;;;;;;;;;;;;;;4.79;100.00;100206.09;5073386;28;875;-67
2023/03/20 01:23:35;;;;;;;;;;;;;;;4.83;100.00;100206.19;5091387;28;883;-69
2023/03/20 01:26:02;;;;;;;;;;;;;;;4.84;100.00;100202.28;5091456;28;930;-67
2023/03/20 01:28:29;;;;;;;;;;;;;;;4.84;100.00;100205.00;5091469;28;831;-67
2023/03/20 01:30:55;;;;;;;;;;;;;;;4.87;100.00;100196.91;5091384;28;879;-67
2023/03/20 01:33:24;;;;;;;;;;;;;;;4.89;100.00;100199.28;5091423;28;831;-67
2023/03/20 01:35:51;;;;;;;;;;;;;;;4.91;100.00;100195.03;5091352;28;1862;-68
2023/03/20 01:38:19;;;;;;;;;;;;;;;4.95;100.00;100199.81;5091631;28;835;-68
2023/03/20 01:40:49;;;;;;;;;;;;;;;4.97;100.00;100198.31;5093611;28;918;-68
2023/03/20 01:43:17;;;;;;;;;;;;;;;4.93;100.00;100189.22;5095430;28;823;-68
2023/03/20 01:45:59;;;;;;;;;;;;;;;4.88;100.00;100187.50;5095389;28;847;-68
2023/03/20 01:48:32;;;;;;;;;;;;;;;4.85;100.00;100188.25;5095281;28;851;-67
2023/03/20 01:50:58;;;;;;;;;;;;;;;4.86;100.00;100181.59;5095306;28;941;-66
2023/03/20 01:53:26;;;;;;;;;;;;;;;4.82;100.00;100183.47;5095161;28;881;-67
2023/03/20 01:55:55;;;;;;;;;;;;;;;4.81;100.00;100181.09;5095159;28;1877;-68
2023/03/20 01:58:25;;;;;;;;;;;;;;;4.83;100.00;100192.47;5095149;28;902;-68
2023/03/20 02:00:52;;;;;;;;;;;;;;;4.84;100.00;100191.31;5095109;28;847;-68
2023/03/20 02:03:20;;;;;;;;;;;;;;;4.82;100.00;100188.16;5095118;28;996;-68
2023/03/20 02:05:47;;;;;;;;;;;;;;;4.82;100.00;100188.16;5095031;28;831;-68
2023/03/20 02:08:26;;;;;;;;;;;;;;;4.86;100.00;100183.53;5095205;28;959;-66
2023/03/20 02:10:53;;;;;;;;;;;;;;;4.86;100.00;100184.34;5095059;28;1402;-68
2023/03/20 02:13:20;;;;;;;;;;;;;;;4.89;100.00;100177.38;5095150;28;870;-68
2023/03/20 02:15:57;;;;;;;;;;;;;;;4.93;100.00;100178.25;5095088;28;1906;-68
2023/03/20 02:18:24;;;;;;;;;;;;;;;4.93;100.00;100183.75;5094803;28;855;-68
2023/03/20 02:20:57;;;;;;;;;;;;;;;4.99;100.00;100186.97;5094732;28;914;-69
2023/03/20 02:23:33;;;;;;;;;;;;;;;5.00;100.00;100183.91;5094501;28;816;-69
2023/03/20 02:26:21;;;;;;;;;;;;;;;5.00;100.00;100188.59;5094641;28;823;-67
2023/03/20 02:29:07;;;;;;;;;;;;;;;4.93;100.00;100188.41;5094564;28;918;-68
2023/03/20 02:31:40;;;;;;;;;;;;;;;4.86;100.00;100184.34;5094824;28;871;-66
2023/03/20 02:34:13;;;;;;;;;;;;;;;4.87;100.00;100176.94;5094527;28;879;-67
2023/03/20 02:37:02;;;;;;;;;;;;;;;4.88;100.00;100175.78;5094319;28;1935;-69
2023/03/20 02:39:34;;;;;;;;;;;;;;;4.89;100.00;100177.38;5094392;28;947;-67
2023/03/20 02:42:11;;;;;;;;;;;;;;;4.86;100.00;100186.28;5094336;28;832;-66
2023/03/20 02:44:55;;;;;;;;;;;;;;;4.75;100.00;100182.50;5094479;28;796;-66
2023/03/20 02:47:28;;;;;;;;;;;;;;;4.74;100.00;100186.38;5094195;28;870;-67
2023/03/20 02:49:57;;;;;;;;;;;;;;;4.79;100.00;100180.66;5094132;28;848;-67
2023/03/20 02:52:24;;;;;;;;;;;;;;;4.79;100.00;100175.16;5093305;28;898;-67
2023/03/20 02:54:56;;;;;;;;;;;;;;;4.78;100.00;100174.38;5093923;28;1949;-67
2023/03/20 02:57:42;;;;;;;;;;;;;;;4.73;100.00;100174.63;5094043;28;819;-67
2023/03/20 03:00:23;;;;;;;;;;;;;;;4.74;100.00;100180.91;5093923;28;899;-67
2023/03/20 03:03:00;;;;;;;;;;;;;;;4.74;100.00;100172.69;5094011;28;819;-68
2023/03/20 03:05:34;;;;;;;;;;;;;;;4.72;100.00;100167.56;5093875;28;894;-69
2023/03/20 03:08:03;;;;;;;;;;;;;;;4.70;100.00;100169.88;5094028;28;924;-67
2023/03/20 03:10:33;;;;;;;;;;;;;;;4.69;100.00;100160.88;5093954;28;1357;-69
2023/03/20 03:13:01;;;;;;;;;;;;;;;4.67;100.00;100157.69;5093755;28;878;-68
2023/03/20 03:16:01;;;;;;;;;;;;;;;4.67;100.00;100163.16;5093639;28;1918;-69
2023/03/20 03:18:29;;;;;;;;;;;;;;;4.70;100.00;100156.97;5050195;28;1365;-69
2023/03/20 03:20:59;;;;;;;;;;;;;;;4.67;100.00;100165.91;5093463;28;915;-68
2023/03/20 03:23:30;;;;;;;;;;;;;;;4.66;100.00;100169.78;5093586;28;891;-68
2023/03/20 03:25:59;;;;;;;;;;;;;;;4.60;100.00;100165.72;5093690;28;918;-66
2023/03/20 03:28:30;;;;;;;;;;;;;;;4.64;100.00;100166.59;5093459;28;901;-66
2023/03/20 03:30:58;;;;;;;;;;;;;;;4.61;100.00;100161.03;5093381;28;883;-68
2023/03/20 03:33:29;;;;;;;;;;;;;;;4.57;100.00;100155.47;5093476;28;931;-68
2023/03/20 03:36:04;;;;;;;;;;;;;;;4.57;100.00;100154.69;5093369;28;1955;-68
2023/03/20 03:38:43;;;;;;;;;;;;;;;4.61;100.00;100153.63;5093273;28;823;-69
2023/03/20 03:41:09;;;;;;;;;;;;;;;4.63;100.00;100145.84;5093284;28;863;-67
2023/03/20 03:43:38;;;;;;;;;;;;;;;4.67;100.00;100152.22;5093129;28;839;-66
2023/03/20 03:46:09;;;;;;;;;;;;;;;4.71;100.00;100155.03;5093432;28;882;-67
2023/03/20 03:48:38;;;;;;;;;;;;;;;4.74;100.00;100154.31;5093017;28;887;-66
2023/03/20 03:51:13;;;;;;;;;;;;;;;4.71;100.00;100152.28;5074808;28;1242;-67
2023/03/20 03:53:47;;;;;;;;;;;;;;;4.69;100.00;100157.31;5092819;28;843;-67
2023/03/20 03:56:15;;;;;;;;;;;;;;;4.69;100.00;100160.88;5093186;28;1889;-68
2023/03/20 03:58:47;;;;;;;;;;;;;;;4.67;100.00;100157.69;5092903;28;883;-67
2023/03/20 04:01:15;;;;;;;;;;;;;;;4.69;100.00;100165.53;5092891;28;886;-67
2023/03/20 04:03:46;;;;;;;;;;;;;;;4.73;100.00;100151.94;5091783;28;882;-66
2023/03/20 04:06:13;;;;;;;;;;;;;;;4.69;100.00;100149.91;5092762;28;906;-66
2023/03/20 04:08:40;;;;;;;;;;;;;;;4.66;100.00;100150.59;5092687;28;889;-66
2023/03/20 04:11:16;;;;;;;;;;;;;;;4.69;100.00;100158.13;5092406;28;1233;-66
2023/03/20 04:13:44;;;;;;;;;;;;;;;4.69;100.00;100151.84;5092602;28;899;-66
2023/03/20 04:16:12;;;;;;;;;;;;;;;4.68;100.00;100155.75;5092869;28;1914;-67
2023/03/20 04:18:40;;;;;;;;;;;;;;;4.67;100.00;100152.22;5074408;28;1196;-66
2023/03/20 04:21:07;;;;;;;;;;;;;;;4.69;100.00;100163.63;5092346;28;859;-67
2023/03/20 04:23:34;;;;;;;;;;;;;;;4.69;100.00;100157.31;5074108;28;1227;-67
2023/03/20 04:26:01;;;;;;;;;;;;;;;4.69;100.00;100165.53;5074158;28;1377;-68
2023/03/20 04:28:27;;;;;;;;;;;;;;;4.77;100.00;100166.50;5092306;28;894;-68
2023/03/20 04:30:55;;;;;;;;;;;;;;;4.84;100.00;100158.47;5092354;28;836;-69
2023/03/20 04:33:22;;;;;;;;;;;;;;;4.87;100.00;100157.75;5092257;28;832;-68
2023/03/20 04:35:49;;;;;;;;;;;;;;;4.85;100.00;100155.38;5092120;28;1941;-68
2023/03/20 04:38:16;;;;;;;;;;;;;;;4.85;100.00;100158.09;5092169;28;816;-69
2023/03/20 04:40:44;;;;;;;;;;;;;;;4.84;100.00;100156.53;5092127;28;890;-67
2023/03/20 04:43:11;;;;;;;;;;;;;;;4.87;100.00;100158.56;5092096;28;898;-67
2023/03/20 04:45:37;;;;;;;;;;;;;;;4.98;100.00;100152.53;5092025;28;839;-66
2023/03/20 04:48:04;;;;;;;;;;;;;;;5.08;100.00;100150.03;5092173;28;808;-67
2023/03/20 04:50:31;;;;;;;;;;;;;;;5.17;100.00;100149.06;5091933;28;883;-69
2023/03/20 04:52:57;;;;;;;;;;;;;;;5.22;100.00;100151.50;5091912;28;859;-68
2023/03/20 04:55:24;;;;;;;;;;;;;;;5.21;100.00;100156.19;5091988;28;1885;-66
2023/03/20 04:57:50;;;;;;;;;;;;;;;5.18;100.00;100151.41;5092072;28;922;-67
2023/03/20 05:00:17;;;;;;;;;;;;;;;5.22;100.00;100151.50;5092068;28;914;-67
2023/03/20 05:02:44;;;;;;;;;;;;;;;5.29;100.00;100155.22;5092207;28;799;-66
2023/03/20 05:05:11;;;;;;;;;;;;;;;5.34;100.00;100153.34;5092084;28;831;-67
2023/03/20 05:07:37;;;;;;;;;;;;;;;5.40;100.00;100158.19;5091849;28;866;-68
2023/03/20 05:10:05;;;;;;;;;;;;;;;5.45;100.00;100157.88;5091839;28;1223;-68
2023/03/20 05:12:32;;;;;;;;;;;;;;;5.52;100.00;100159.97;5092060;28;858;-69
2023/03/20 05:14:59;;;;;;;;;;;;;;;5.60;100.00;100161.72;5091599;28;1961;-68
2023/03/20 05:17:25;;;;;;;;;;;;;;;5.59;100.00;100162.91;5091862;28;859;-67
2023/03/20 05:19:52;;;;;;;;;;;;;;;5.57;100.00;100148.75;5091537;28;835;-68
2023/03/20 05:22:19;;;;;;;;;;;;;;;5.50;100.00;100152.13;5091823;28;1033;-69
2023/03/20 05:24:46;;;;;;;;;;;;;;;5.59;100.00;100143.69;5073525;28;1433;-68
2023/03/20 05:27:18;;;;;;;;;;;;;;;5.73;100.00;100148.66;5091353;28;943;-68
2023/03/20 05:29:45;;;;;;;;;;;;;;;5.82;100.00;100154.72;5091459;28;796;-68
2023/03/20 05:32:12;;;;;;;;;;;;;;;5.81;100.00;100161.38;5091555;28;906;-68
2023/03/20 05:34:43;;;;;;;;;;;;;;;5.79;100.00;100163.69;5091267;28;1863;-69
2023/03/20 05:37:10;;;;;;;;;;;;;;;5.87;100.00;100156.41;5091487;28;875;-68
2023/03/20 05:39:36;;;;;;;;;;;;;;;5.97;100.00;100160.53;5091348;28;879;-67
2023/03/20 05:42:02;;;;;;;;;;;;;;;6.06;100.00;100172.88;5091624;28;851;-68
2023/03/20 05:44:29;;;;;;;;;;;;;;;6.07;100.00;100165.44;5091635;28;903;-69
2023/03/20 05:46:56;;;;;;;;;;;;;;;6.17;100.00;100162.09;5091315;28;863;-69
2023/03/20 05:49:22;;;;;;;;;;;;;;;6.37;100.00;100167.53;5091157;28;843;-68
2023/03/20 05:51:49;;;;;;;;;;;;;;;6.47;100.00;100175.97;5091268;28;855;-68
2023/03/20 05:54:15;;;;;;;;;;;;;;;6.48;100.00;100172.06;5091235;28;907;-67
2023/03/20 05:56:42;;;;;;;;;;;;;;;6.46;100.00;100173.59;5091077;28;1952;-68
2023/03/20 05:59:09;;;;;;;;;;;;;;;6.58;100.00;100173.41;5091226;28;902;-67
2023/03/20 06:01:36;;;;;;;;;;;;;;;6.61;100.00;100169.91;5091218;28;835;-68
2023/03/20 06:04:03;;;;;;;;;;;;;;;6.61;100.00;100169.91;5091165;28;887;-68
2023/03/20 06:06:30;;;;;;;;;;;;;;;6.59;100.00;100169.50;5091117;28;812;-67
2023/03/20 06:08:56;;;;;;;;;;;;;;;6.58;100.00;100167.91;5091285;28;1037;-68
2023/03/20 06:11:23;;;;;;;;;;;;;;;6.66;100.00;100163.34;5090863;28;1444;-68
2023/03/20 06:13:53;;;;;;;;;;;;;;;6.78;100.00;100167.84;5091038;28;859;-69
2023/03/20 06:16:20;;;;;;;;;;;;;;;6.73;100.00;100171.69;5072848;28;1980;-68
2023/03/20 06:18:46;;;;;;;;;;;;;;;6.78;100.00;100173.34;5091076;28;851;-68
2023/03/20 06:21:13;;;;;;;;;;;;;;;6.73;100.00;100174.44;5091038;28;878;-67
2023/03/20 06:23:39;;;;;;;;;;;;;;;6.95;100.00;100173.59;5090957;28;871;-67
2023/03/20 06:26:07;;;;;;;;;;;;;;;7.52;100.00;100161.88;5090930;28;825;-68
2023/03/20 06:28:33;;;;;;;;;;;;;;;8.02;100.00;100167.19;5093715;28;819;-69
2023/03/20 06:30:59;;;;;;;;;;;;;;;8.28;100.00;100167.09;5094597;28;855;-67
2023/03/20 06:33:25;;;;;;;;;;;;;;;8.62;100.00;100168.97;5094379;28;862;-67
2023/03/20 06:35:52;;;;;;;;;;;;;;;8.58;100.00;100168.97;5094749;28;1898;-67
2023/03/20 06:38:19;;;;;;;;;;;;;;;8.52;100.00;100179.53;5076502;28;1324;-66
2023/03/20 06:40:46;;;;;;;;;;;;;;;8.50;100.00;100175.59;5076070;28;1504;-68
2023/03/20 06:43:13;;;;;;;;;;;;;;;8.43;100.00;100178.25;5094434;28;843;-67
2023/03/20 06:45:39;;;;;;;;;;;;;;;8.75;100.00;100176.59;5094249;28;828;-67
2023/03/20 06:48:07;;;;;;;;;;;;;;;9.27;100.00;100175.78;5076080;28;1267;-68
2023/03/20 06:50:34;;;;;;;;;;;;;;;9.43;100.00;100181.00;5094218;28;823;-67
2023/03/20 06:53:01;;;;;;;;;;;;;;;9.49;100.00;100171.19;5075991;28;1385;-67
2023/03/20 06:55:28;;;;;;;;;;;;;;;9.44;100.00;100166.03;5093995;28;1893;-67
2023/03/20 06:57:54;;;;;;;;;;;;;;;9.34;100.00;100168.34;5094123;28;851;-67
2023/03/20 07:00:21;;;;;;;;;;;;;;;9.67;100.00;100160.25;5094343;28;902;-68
2023/03/20 07:02:48;;;;;;;;;;;;;;;10.52;100.00;100158.91;5094139;28;882;-67
2023/03/20 07:05:15;;;;;;;;;;;;;;;11.15;100.00;100154.53;5094089;28;872;-67
2023/03/20 07:07:41;;;;;;;;;;;;;;;11.00;100.00;100161.28;5093986;28;1020;-66
2023/03/20 07:10:08;;;;;;;;;;;;;;;10.65;100.00;100165.66;5093811;28;1368;-67
2023/03/20 07:12:35;;;;;;;;;;;;;;;10.38;100.00;100165.22;5094001;28;827;-67
2023/03/20 07:15:03;;;;;;;;;;;;;;;10.22;100.00;100168.31;5093873;28;1913;-66
2023/03/20 07:17:29;;;;;;;;;;;;;;;10.25;100.00;100158.47;5075482;28;1271;-67
2023/03/20 07:19:56;;;;;;;;;;;;;;;9.98;100.00;100161.53;5093887;28;808;-68
2023/03/20 07:22:26;;;;;;;;;;;;;;;9.96;100.00;100153.66;5093765;28;882;-68
2023/03/20 07:24:53;;;;;;;;;;;;;;;9.94;100.00;100161.53;5093612;28;898;-68
2023/03/20 07:27:21;;;;;;;;;;;;;;;10.32;100.00;100155.72;5075247;28;1299;-67
2023/03/20 07:29:47;;;;;;;;;;;;;;;10.81;100.00;100157.72;5093453;28;903;-67
2023/03/20 07:32:15;;;;;;;;;;;;;;;11.15;100.00;100157.31;5093483;28;832;-66
2023/03/20 07:34:42;;;;;;;;;;;;;;;11.59;100.00;100156.03;5093222;28;1897;-66
2023/03/20 07:37:09;;;;;;;;;;;;;;;11.18;100.00;100152.97;5093225;28;874;-67
2023/03/20 07:39:35;;;;;;;;;;;;;;;11.35;100.00;100156.88;5093036;28;847;-66
2023/03/20 07:42:02;;;;;;;;;;;;;;;11.35;100.00;100163.22;5093201;28;894;-66
2023/03/20 07:44:28;;;;;;;;;;;;;;;11.22;100.00;100162.03;5093110;28;875;-67
2023/03/20 07:46:55;;;;;;;;;;;;;;;11.35;100.00;100167.94;5092986;28;911;-67
2023/03/20 07:49:21;;;;;;;;;;;;;;;11.61;100.00;100161.94;5093185;28;832;-68
2023/03/20 07:51:49;;;;;;;;;;;;;;;12.04;100.00;100159.03;5093060;28;891;-67
2023/03/20 07:54:15;;;;;;;;;;;;;;;12.26;100.00;100158.91;5092992;28;848;-69
2023/03/20 07:56:42;;;;;;;;;;;;;;;12.44;98.70;100161.56;5074765;28;1877;-68
2023/03/20 08:05:42;;;;;;;;;;;;;;;12.59;95.87;100163.03;5093124;28;685;-67
2023/03/20 08:08:29;;;;;;;;;;;;;;;13.15;93.58;100162.97;5010602;28;1241;-66
2023/03/20 08:10:56;;;;;;;;;;;;;;;13.63;92.00;100170.44;5010363;28;1517;-66
2023/03/20 08:13:23;;;;;;;;;;;;;;;13.05;91.58;100167.41;5010679;28;961;-67
2023/03/20 08:15:50;;;;;;;;;;;;;;;12.35;96.49;100159.22;5010389;28;1950;-67
2023/03/20 08:18:18;;;;;;;;;;;;;;;12.87;93.96;100158.47;5010766;28;1091;-66
2023/03/20 08:20:45;;;;;;;;;;;;;;;12.88;91.92;100163.59;5010448;28;930;-66
2023/03/20 08:23:12;;;;;;;;;;;;;;;12.95;91.97;100165.53;5010517;28;895;-68
2023/03/20 08:25:39;;;;;;;;;;;;;;;12.87;95.31;100166.78;5010415;28;931;-67
2023/03/20 08:28:07;;;;;;;;;;;;;;;13.02;92.38;100170.22;5010323;28;828;-66
2023/03/20 08:30:37;;;;;;;;;;;;;;;12.87;90.59;100173.13;5010374;28;871;-67
2023/03/20 08:33:04;;;;;;;;;;;;;;;12.75;93.55;100167.28;5010382;28;1036;-67
2023/03/20 08:35:31;;;;;;;;;;;;;;;12.99;92.68;100171.81;5010359;28;1898;-68
2023/03/20 08:37:57;;;;;;;;;;;;;;;13.27;90.81;100170.78;5010270;28;1071;-67
2023/03/20 08:40:25;;;;;;;;;;;;;;;13.38;92.17;100169.91;5010183;28;886;-69
2023/03/20 08:42:51;;;;;;;;;;;;;;;13.51;91.68;100168.19;5010110;28;809;-70
2023/03/20 08:45:18;;;;;;;;;;;;;;;13.50;89.10;100174.13;5066329;28;904;-69
2023/03/20 08:47:47;;;;;;;;;;;;;;;13.18;89.68;100166.91;5091966;28;812;-69
2023/03/20 08:50:14;;;;;;;;;;;;;;;12.91;90.54;100166.75;5091562;28;822;-70
2023/03/20 08:52:45;;;;;;;;;;;;;;;12.82;92.94;100162.47;5092229;28;804;-68
2023/03/20 08:55:13;;;;;;;;;;;;;;;12.94;92.68;100157.63;5091968;28;1962;-70
2023/03/20 08:57:40;;;;;;;;;;;;;;;12.87;92.43;100164.00;5092058;28;836;-68
2023/03/20 09:00:08;;;;;;;;;;;;;;;12.76;96.57;100157.75;5092111;28;792;-69
2023/03/20 09:02:35;;;;;;;;;;;;;;;12.86;94.85;100151.31;5091830;28;895;-68
2023/03/20 09:05:02;;;;;;;;;;;;;;;12.86;93.75;100151.31;5073522;28;923;-68
2023/03/20 09:07:30;;;;;;;;;;;;;;;12.93;94.28;100144.94;5073536;28;1302;-68
2023/03/20 09:19:04;;;;;;;;;;;;;;;13.13;92.79;100142.38;5091911;28;615;-68
2023/03/20 09:21:30;;;;;;;;;;;;;;;13.18;96.27;100128.03;5091596;28;918;-69
2023/03/20 09:23:57;;;;;;;;;;;;;;;13.08;95.18;100130.53;5091506;28;962;-68
2023/03/20 09:26:23;;;;;;;;;;;;;;;12.92;96.43;100121.94;5091564;28;855;-70
2023/03/20 09:28:49;;;;;;;;;;;;;;;13.32;96.61;100121.59;5091624;28;867;-69
2023/03/20 09:31:16;;;;;;;;;;;;;;;13.31;92.49;100120.00;5091598;28;879;-69
2023/03/20 09:33:43;;;;;;;;;;;;;;;13.12;92.19;100118.59;5091472;28;891;-69
2023/03/20 09:36:10;;;;;;;;;;;;;;;12.94;95.02;100116.00;5091358;28;1955;-68
2023/03/20 09:38:36;;;;;;;;;;;;;;;13.12;95.36;100124.94;5091448;28;836;-69
2023/03/20 10:09:33;;;;;;;;;;;;;;;13.46;93.97;100088.91;5744357;22;1639;-67
2023/03/20 10:12:02;;;;;;;;;;;;;;;13.49;95.24;100078.94;5095299;28;878;-68
2023/03/20 10:14:48;;;;;;;;;;;;;;;13.98;96.45;100068.38;5095172;28;878;-66
2023/03/20 10:17:28;;;;;;;;;;;;;;;14.32;90.62;100063.88;5094964;28;902;-66
2023/03/20 10:19:55;;;;;;;;;;;;;;;14.31;88.55;100065.88;5095243;28;1053;-68
2023/03/20 10:22:34;;;;;;;;;;;;;;;14.54;89.08;100070.66;5095089;28;859;-68
2023/03/20 10:25:09;;;;;;;;;;;;;;;14.56;88.01;100062.72;5094707;28;856;-67
2023/03/20 10:27:38;;;;;;;;;;;;;;;14.60;89.76;100054.31;5094938;28;914;-68
2023/03/20 10:30:23;;;;;;;;;;;;;;;14.81;86.75;100056.72;5094823;28;796;-68
2023/03/20 10:32:59;;;;;;;;;;;;;;;14.78;86.05;100056.78;5094920;28;878;-68
2023/03/20 10:35:42;;;;;;;;;;;;;;;15.10;83.48;100040.25;5076333;28;1977;-69
2023/03/20 10:38:38;;;;;;;;;;;;;;;15.25;82.83;100039.97;5094479;28;843;-67
2023/03/20 10:41:08;;;;;;;;;;;;;;;15.31;82.76;100033.47;5077154;28;1017;-68
2023/03/20 10:43:35;;;;;;;;;;;;;;;15.57;79.96;100021.78;5094346;28;835;-68
2023/03/20 10:46:02;;;;;;;;;;;;;;;15.64;81.40;100025.22;5094303;28;828;-68
2023/03/20 10:48:36;;;;;;;;;;;;;;;16.11;77.76;100024.19;5094241;28;908;-69
2023/03/20 10:51:02;;;;;;;;;;;;;;;16.41;76.83;100016.66;5095029;28;859;-68
2023/03/20 10:53:32;;;;;;;;;;;;;;;16.56;77.63;100011.50;5095037;28;756;-69
2023/03/20 10:56:06;;;;;;;;;;;;;;;16.75;75.48;100007.81;5094033;28;1945;-69
2023/03/20 10:58:36;;;;;;;;;;;;;;;16.81;77.03;100010.88;5094108;28;836;-68
2023/03/20 11:01:02;;;;;;;;;;;;;;;16.87;75.88;100012.69;5094077;28;835;-68
2023/03/20 11:03:30;;;;;;;;;;;;;;;17.06;73.36;100010.19;5094097;28;846;-69
2023/03/20 11:06:01;;;;;;;;;;;;;;;16.93;73.67;99998.97;5093971;28;902;-69
2023/03/20 11:08:34;;;;;;;;;;;;;;;16.90;75.32;99992.28;5093961;28;940;-67
2023/03/20 11:11:01;;;;;;;;;;;;;;;17.09;74.69;99992.53;5093781;28;1418;-69
2023/03/20 11:13:28;;;;;;;;;;;;;;;17.12;73.32;99988.88;5093412;28;831;-68
2023/03/20 11:15:54;;;;;;;;;;;;;;;17.32;67.80;99981.06;5094049;28;2032;-69
2023/03/20 11:18:24;;;;;;;;;;;;;;;17.80;66.17;99972.84;5094126;28;878;-68
2023/03/20 11:20:53;;;;;;;;;;;;;;;17.86;66.05;99967.47;5075430;28;1315;-69
2023/03/20 11:23:23;;;;;;;;;;;;;;;17.88;67.47;99965.03;5093621;28;894;-68
2023/03/20 11:25:52;;;;;;;;;;;;;;;18.08;66.36;99957.16;5093814;28;909;-68
2023/03/20 11:28:35;;;;;;;;;;;;;;;18.09;66.55;99953.16;5093566;28;918;-68
2023/03/20 11:31:10;;;;;;;;;;;;;;;18.40;64.24;99957.31;5093556;28;804;-69
2023/03/20 11:33:39;;;;;;;;;;;;;;;18.45;63.91;99946.31;5093343;28;926;-69
2023/03/20 11:36:20;;;;;;;;;;;;;;;18.21;63.41;99948.75;5093239;28;1878;-68
2023/03/20 11:38:48;;;;;;;;;;;;;;;18.40;64.79;99946.13;5093203;28;788;-68
2023/03/20 11:41:21;;;;;;;;;;;;;;;18.82;62.82;99948.66;5093245;28;875;-68
2023/03/20 11:43:48;;;;;;;;;;;;;;;18.91;61.29;99937.53;5093130;28;914;-68
2023/03/20 11:46:23;;;;;;;;;;;;;;;18.83;61.30;99939.03;5093232;28;831;-69
2023/03/20 11:49:11;;;;;;;;;;;;;;;18.91;59.19;99929.91;5093091;28;867;-68
2023/03/20 11:51:38;;;;;;;;;;;;;;;19.52;58.15;99927.59;5079277;28;1195;-69
2023/03/20 11:54:06;;;;;;;;;;;;;;;20.03;57.73;99926.34;5093054;28;871;-69
2023/03/20 11:56:33;;;;;;;;;;;;;;;20.22;55.98;99923.56;5092917;28;1947;-68
2023/03/20 11:59:06;;;;;;;;;;;;;;;20.62;55.35;99925.47;5092915;28;858;-69
2023/03/20 12:01:45;;;;;;;;;;;;;;;21.11;52.71;99916.03;5092834;28;815;-68
2023/03/20 12:04:15;;;;;;;;;;;;;;;20.97;51.98;99912.66;5093063;28;993;-67
2023/03/20 12:07:00;;;;;;;;;;;;;;;20.74;51.62;99913.28;5092747;28;839;-69
2023/03/20 12:09:31;;;;;;;;;;;;;;;20.51;50.16;99904.25;5092975;28;1374;-69
2023/03/20 12:12:02;;;;;;;;;;;;;;;20.91;49.12;99889.25;5092963;28;819;-69
2023/03/20 12:14:56;;;;;;;;;;;;;;;21.53;49.79;99896.38;5092694;28;993;-69
2023/03/20 12:17:40;;;;;;;;;;;;;;;21.46;48.88;99890.31;5089215;28;1402;-69
2023/03/20 12:20:26;;;;;;;;;;;;;;;21.05;48.46;99884.97;5092559;28;834;-69
2023/03/20 12:22:53;;;;;;;;;;;;;;;20.72;48.50;99890.53;5091920;28;1284;-68
2023/03/20 12:25:22;;;;;;;;;;;;;;;20.40;49.67;99882.25;5091559;28;877;-68
2023/03/20 12:27:57;;;;;;;;;;;;;;;20.34;50.66;99877.75;5092633;28;886;-69
2023/03/20 12:30:31;;;;;;;;;;;;;;;20.50;49.91;99877.41;5092282;28;839;-69
2023/03/20 12:33:07;;;;;;;;;;;;;;;21.00;49.20;99877.19;5092340;28;819;-68
2023/03/20 12:35:40;;;;;;;;;;;;;;;21.18;47.96;99879.94;5092184;28;1960;-68
2023/03/20 12:38:36;;;;;;;;;;;;;;;21.40;47.51;99878.91;5073823;28;1287;-69
2023/03/20 12:41:38;;;;;;;;;;;;;;;21.85;46.68;99863.06;5075184;28;1389;-69
2023/03/20 12:44:12;;;;;;;;;;;;;;;22.39;45.54;99861.09;5010082;28;1495;-68
2023/03/20 12:46:57;;;;;;;;;;;;;;;22.48;43.65;99859.47;5010121;28;929;-69
2023/03/20 12:49:31;;;;;;;;;;;;;;;22.84;40.39;99850.63;5010124;28;919;-68
2023/03/20 12:52:04;;;;;;;;;;;;;;;23.40;38.94;99850.75;5009979;28;1067;-68
2023/03/20 12:54:48;;;;;;;;;;;;;;;22.90;39.14;99852.78;5009990;28;851;-68
2023/03/20 12:57:22;;;;;;;;;;;;;;;22.90;39.40;99845.09;5009841;28;868;-69
2023/03/20 13:00:09;;;;;;;;;;;;;;;23.38;38.87;99839.19;5009967;28;973;-68
2023/03/20 13:02:53;;;;;;;;;;;;;;;23.57;37.99;99836.13;5009883;28;816;-68
2023/03/20 13:05:46;;;;;;;;;;;;;;;23.45;38.90;99832.41;5009806;28;1045;-67
2023/03/20 13:08:19;;;;;;;;;;;;;;;23.13;39.06;99837.03;5007247;28;1103;-68
2023/03/20 13:10:53;;;;;;;;;;;;;;;23.32;38.88;99829.09;5009451;28;1146;-66
2023/03/20 13:13:38;;;;;;;;;;;;;;;23.03;39.15;99831.50;5009730;28;867;-67
2023/03/20 13:16:05;;;;;;;;;;;;;;;22.43;40.47;99832.75;5009646;28;1957;-67
2023/03/20 13:18:50;;;;;;;;;;;;;;;22.37;40.55;99837.50;5067162;28;1035;-68
2023/03/20 13:21:24;;;;;;;;;;;;;;;22.51;40.74;99833.94;5091542;28;929;-67
2023/03/20 13:23:56;;;;;;;;;;;;;;;22.26;40.81;99824.00;5091616;28;831;-67
2023/03/20 13:26:34;;;;;;;;;;;;;;;21.89;42.04;99829.13;5091503;28;847;-67
2023/03/20 13:29:01;;;;;;;;;;;;;;;21.79;42.04;99825.59;5091529;28;835;-68
2023/03/20 13:31:45;;;;;;;;;;;;;;;21.69;41.26;99824.88;5091661;28;827;-67
2023/03/20 13:34:30;;;;;;;;;;;;;;;21.45;42.26;99826.91;5091468;28;823;-67
2023/03/20 13:37:07;;;;;;;;;;;;;;;20.62;47.78;99830.00;5093811;28;1943;-67
2023/03/20 13:39:37;;;;;;;;;;;;;;;19.77;50.78;99825.63;5095647;28;867;-65
2023/03/20 13:42:07;;;;;;;;;;;;;;;18.82;54.60;99834.66;5095599;28;878;-67
2023/03/20 13:44:35;;;;;;;;;;;;;;;18.50;56.04;99838.63;5095780;28;812;-67
2023/03/20 13:47:06;;;;;;;;;;;;;;;18.30;57.14;99830.56;5095500;28;831;-68
2023/03/20 13:49:36;;;;;;;;;;;;;;;18.15;57.32;99831.06;5096215;28;768;-67
2023/03/20 13:52:03;;;;;;;;;;;;;;;18.07;57.72;99826.16;5095595;28;923;-68
2023/03/20 13:54:48;;;;;;;;;;;;;;;17.84;57.81;99830.19;5077185;28;1290;-68
2023/03/20 13:57:26;;;;;;;;;;;;;;;17.57;58.58;99828.63;5095775;28;870;-66